Terminal Aerodrome Forecast
Issued by NWS

Home | Current Version | Previous Version | Text Only | Print | Product List | Glossary On
Versions: 1 2 3 4 5 6 7 8 9 10 11 12 13 14 15
628
FTUS42 TJSJ 262331
TAFJSJ
TAF
TJSJ 262331Z 2700/2724 11007KT P6SM FEW028 SCT035 BKN090
     FM270600 12005KT P6SM FEW030 FEW090
     FM271300 08015G20KT P6SM SCT030
     FM271700 07016KT P6SM VCSH FEW030 SCT050
     FM272300 10008KT P6SM FEW030 SCT060=

USA.gov is the U.S. government's official web portal to all federal, state and local government web resources and services.